sensor_id;sensor_type;location;lat;lon;timestamp;temperature;humidity
11221;DHT22;8517;53.546;10.104;2023-05-14T00:01:09;17.10;99.90
11221;DHT22;8517;53.546;10.104;2023-05-14T00:03:38;17.00;99.90
11221;DHT22;8517;53.546;10.104;2023-05-14T00:06:05;17.00;99.90
11221;DHT22;8517;53.546;10.104;2023-05-14T00:08:32;16.90;99.90
11221;DHT22;8517;53.546;10.104;2023-05-14T00:10:59;16.90;99.90
11221;DHT22;8517;53.546;10.104;2023-05-14T00:13:26;16.80;99.90
11221;DHT22;8517;53.546;10.104;2023-05-14T00:15:52;16.80;99.90
11221;DHT22;8517;53.546;10.104;2023-05-14T00:18:19;16.80;99.90
11221;DHT22;8517;53.546;10.104;2023-05-14T00:20:47;16.70;99.90
11221;DHT22;8517;53.546;10.104;2023-05-14T00:23:19;16.70;99.90
11221;DHT22;8517;53.546;10.104;2023-05-14T00:25:46;16.60;99.90
11221;DHT22;8517;53.546;10.104;2023-05-14T00:28:12;16.60;99.90
11221;DHT22;8517;53.546;10.104;2023-05-14T00:30:39;16.50;99.90
11221;DHT22;8517;53.546;10.104;2023-05-14T00:33:06;16.50;99.90
11221;DHT22;8517;53.546;10.104;2023-05-14T00:35:33;16.50;99.90
11221;DHT22;8517;53.546;10.104;2023-05-14T00:38:02;16.40;99.90
11221;DHT22;8517;53.546;10.104;2023-05-14T00:40:29;16.30;99.90
11221;DHT22;8517;53.546;10.104;2023-05-14T00:42:56;16.30;99.90
11221;DHT22;8517;53.546;10.104;2023-05-14T00:45:23;16.30;99.90
11221;DHT22;8517;53.546;10.104;2023-05-14T00:47:50;16.20;99.90
11221;DHT22;8517;53.546;10.104;2023-05-14T00:50:17;16.20;99.90
11221;DHT22;8517;53.546;10.104;2023-05-14T00:52:44;16.20;99.90
11221;DHT22;8517;53.546;10.104;2023-05-14T00:55:14;16.10;99.90
11221;DHT22;8517;53.546;10.104;2023-05-14T00:57:42;16.10;99.90
11221;DHT22;8517;53.546;10.104;2023-05-14T01:00:10;16.10;99.90
11221;DHT22;8517;53.546;10.104;2023-05-14T01:02:36;16.10;99.90
11221;DHT22;8517;53.546;10.104;2023-05-14T01:05:21;16.00;99.90
11221;DHT22;8517;53.546;10.104;2023-05-14T01:08:14;16.00;99.90
11221;DHT22;8517;53.546;10.104;2023-05-14T01:10:51;15.90;99.90
11221;DHT22;8517;53.546;10.104;2023-05-14T01:13:23;15.90;99.90
11221;DHT22;8517;53.546;10.104;2023-05-14T01:16:12;15.90;99.90
11221;DHT22;8517;53.546;10.104;2023-05-14T01:18:39;15.90;99.90
11221;DHT22;8517;53.546;10.104;2023-05-14T01:21:35;15.80;99.90
11221;DHT22;8517;53.546;10.104;2023-05-14T01:24:03;15.80;99.90
11221;DHT22;8517;53.546;10.104;2023-05-14T01:26:30;15.80;99.90
11221;DHT22;8517;53.546;10.104;2023-05-14T01:29:00;15.80;99.90
11221;DHT22;8517;53.546;10.104;2023-05-14T01:31:30;15.80;99.90
11221;DHT22;8517;53.546;10.104;2023-05-14T01:33:58;15.80;99.90
11221;DHT22;8517;53.546;10.104;2023-05-14T01:36:27;15.80;99.90
11221;DHT22;8517;53.546;10.104;2023-05-14T01:38:55;15.80;99.90
11221;DHT22;8517;53.546;10.104;2023-05-14T01:41:24;15.80;99.90
11221;DHT22;8517;53.546;10.104;2023-05-14T01:43:51;15.80;99.90
11221;DHT22;8517;53.546;10.104;2023-05-14T01:46:19;15.80;99.90
11221;DHT22;8517;53.546;10.104;2023-05-14T01:48:46;15.70;99.90
11221;DHT22;8517;53.546;10.104;2023-05-14T01:51:13;15.70;99.90
11221;DHT22;8517;53.546;10.104;2023-05-14T01:53:40;15.70;99.90
11221;DHT22;8517;53.546;10.104;2023-05-14T01:56:08;15.70;99.90
11221;DHT22;8517;53.546;10.104;2023-05-14T01:58:35;15.70;99.90
11221;DHT22;8517;53.546;10.104;2023-05-14T02:01:01;15.70;99.90
11221;DHT22;8517;53.546;10.104;2023-05-14T02:03:28;15.60;99.90
11221;DHT22;8517;53.546;10.104;2023-05-14T02:05:55;15.60;99.90
11221;DHT22;8517;53.546;10.104;2023-05-14T02:08:22;15.60;99.90
11221;DHT22;8517;53.546;10.104;2023-05-14T02:10:49;15.50;99.90
11221;DHT22;8517;53.546;10.104;2023-05-14T02:13:17;15.50;99.90
11221;DHT22;8517;53.546;10.104;2023-05-14T02:15:44;15.50;99.90
11221;DHT22;8517;53.546;10.104;2023-05-14T02:18:11;15.50;99.90
11221;DHT22;8517;53.546;10.104;2023-05-14T02:20:38;15.50;99.90
11221;DHT22;8517;53.546;10.104;2023-05-14T02:23:05;15.50;99.90
11221;DHT22;8517;53.546;10.104;2023-05-14T02:25:32;15.50;99.90
11221;DHT22;8517;53.546;10.104;2023-05-14T02:27:58;15.50;99.90
11221;DHT22;8517;53.546;10.104;2023-05-14T02:30:27;15.50;99.90
11221;DHT22;8517;53.546;10.104;2023-05-14T02:32:54;15.40;99.90
11221;DHT22;8517;53.546;10.104;2023-05-14T02:35:21;15.40;99.90
11221;DHT22;8517;53.546;10.104;2023-05-14T02:37:48;15.40;99.90
11221;DHT22;8517;53.546;10.104;2023-05-14T02:40:15;15.40;99.90
11221;DHT22;8517;53.546;10.104;2023-05-14T02:42:42;15.40;99.90
11221;DHT22;8517;53.546;10.104;2023-05-14T02:45:09;15.30;99.90
11221;DHT22;8517;53.546;10.104;2023-05-14T02:47:38;15.30;99.90
11221;DHT22;8517;53.546;10.104;2023-05-14T02:50:06;15.20;99.90
11221;DHT22;8517;53.546;10.104;2023-05-14T02:52:33;15.20;99.90
11221;DHT22;8517;53.546;10.104;2023-05-14T02:55:00;15.20;99.90
11221;DHT22;8517;53.546;10.104;2023-05-14T02:57:28;15.10;99.90
11221;DHT22;8517;53.546;10.104;2023-05-14T02:59:54;15.10;99.90
11221;DHT22;8517;53.546;10.104;2023-05-14T03:02:21;15.10;99.90
11221;DHT22;8517;53.546;10.104;2023-05-14T03:04:56;15.10;99.90
11221;DHT22;8517;53.546;10.104;2023-05-14T03:07:27;15.00;99.90
11221;DHT22;8517;53.546;10.104;2023-05-14T03:09:59;15.00;99.90
11221;DHT22;8517;53.546;10.104;2023-05-14T03:12:26;15.00;99.90
11221;DHT22;8517;53.546;10.104;2023-05-14T03:14:53;14.90;99.90
11221;DHT22;8517;53.546;10.104;2023-05-14T03:17:20;14.90;99.90
11221;DHT22;8517;53.546;10.104;2023-05-14T03:19:47;14.90;99.90
11221;DHT22;8517;53.546;10.104;2023-05-14T03:25:15;14.80;99.90
11221;DHT22;8517;53.546;10.104;2023-05-14T03:27:41;14.70;99.90
11221;DHT22;8517;53.546;10.104;2023-05-14T03:30:09;14.70;99.90
11221;DHT22;8517;53.546;10.104;2023-05-14T03:32:36;14.70;99.90
11221;DHT22;8517;53.546;10.104;2023-05-14T03:35:03;14.60;99.90
11221;DHT22;8517;53.546;10.104;2023-05-14T03:40:46;14.60;99.90
11221;DHT22;8517;53.546;10.104;2023-05-14T03:43:13;14.60;99.90
11221;DHT22;8517;53.546;10.104;2023-05-14T03:45:40;14.60;99.90
11221;DHT22;8517;53.546;10.104;2023-05-14T03:48:07;14.60;99.90
11221;DHT22;8517;53.546;10.104;2023-05-14T03:50:34;14.60;99.90
11221;DHT22;8517;53.546;10.104;2023-05-14T03:53:01;14.50;99.90
11221;DHT22;8517;53.546;10.104;2023-05-14T03:55:27;14.50;99.90
11221;DHT22;8517;53.546;10.104;2023-05-14T03:57:56;14.50;99.90
11221;DHT22;8517;53.546;10.104;2023-05-14T04:00:22;14.50;99.90
11221;DHT22;8517;53.546;10.104;2023-05-14T04:02:49;14.50;99.90
11221;DHT22;8517;53.546;10.104;2023-05-14T04:05:16;14.50;99.90
11221;DHT22;8517;53.546;10.104;2023-05-14T04:07:43;14.50;99.90
11221;DHT22;8517;53.546;10.104;2023-05-14T04:10:11;14.50;99.90
11221;DHT22;8517;53.546;10.104;2023-05-14T04:12:38;14.50;99.90
11221;DHT22;8517;53.546;10.104;2023-05-14T04:15:07;14.50;99.90
11221;DHT22;8517;53.546;10.104;2023-05-14T04:17:34;14.50;99.90
11221;DHT22;8517;53.546;10.104;2023-05-14T04:20:01;14.60;99.90
11221;DHT22;8517;53.546;10.104;2023-05-14T04:22:28;14.70;99.90
11221;DHT22;8517;53.546;10.104;2023-05-14T04:24:56;14.90;99.90
11221;DHT22;8517;53.546;10.104;2023-05-14T04:27:23;15.10;99.90
11221;DHT22;8517;53.546;10.104;2023-05-14T04:29:50;15.20;99.90
11221;DHT22;8517;53.546;10.104;2023-05-14T04:32:18;15.30;99.90
11221;DHT22;8517;53.546;10.104;2023-05-14T04:34:45;15.40;99.90
11221;DHT22;8517;53.546;10.104;2023-05-14T04:37:12;15.50;99.90
11221;DHT22;8517;53.546;10.104;2023-05-14T04:39:39;15.60;99.90
11221;DHT22;8517;53.546;10.104;2023-05-14T04:42:06;15.60;99.90
11221;DHT22;8517;53.546;10.104;2023-05-14T04:44:33;15.60;99.90
11221;DHT22;8517;53.546;10.104;2023-05-14T04:47:00;15.70;99.90
11221;DHT22;8517;53.546;10.104;2023-05-14T04:49:29;15.80;99.90
11221;DHT22;8517;53.546;10.104;2023-05-14T04:51:56;15.80;99.90
11221;DHT22;8517;53.546;10.104;2023-05-14T04:54:23;15.90;99.90
11221;DHT22;8517;53.546;10.104;2023-05-14T04:56:50;15.90;99.90
11221;DHT22;8517;53.546;10.104;2023-05-14T04:59:17;15.90;99.90
11221;DHT22;8517;53.546;10.104;2023-05-14T05:01:43;15.90;99.90
11221;DHT22;8517;53.546;10.104;2023-05-14T05:04:10;16.00;99.90
11221;DHT22;8517;53.546;10.104;2023-05-14T05:06:38;16.10;99.90
11221;DHT22;8517;53.546;10.104;2023-05-14T05:09:05;16.20;99.90
11221;DHT22;8517;53.546;10.104;2023-05-14T05:11:33;16.30;99.90
11221;DHT22;8517;53.546;10.104;2023-05-14T05:13:59;16.50;99.90
11221;DHT22;8517;53.546;10.104;2023-05-14T05:16:26;16.60;99.90
11221;DHT22;8517;53.546;10.104;2023-05-14T05:18:53;16.60;99.90
11221;DHT22;8517;53.546;10.104;2023-05-14T05:21:20;16.70;99.90
11221;DHT22;8517;53.546;10.104;2023-05-14T05:23:48;16.90;99.90
11221;DHT22;8517;53.546;10.104;2023-05-14T05:26:15;17.10;99.90
11221;DHT22;8517;53.546;10.104;2023-05-14T05:28:42;17.40;99.90
11221;DHT22;8517;53.546;10.104;2023-05-14T05:31:09;17.60;99.90
11221;DHT22;8517;53.546;10.104;2023-05-14T05:33:36;17.80;99.90
11221;DHT22;8517;53.546;10.104;2023-05-14T05:36:03;17.90;99.90
11221;DHT22;8517;53.546;10.104;2023-05-14T05:38:30;18.00;99.90
11221;DHT22;8517;53.546;10.104;2023-05-14T05:40:58;18.20;99.90
11221;DHT22;8517;53.546;10.104;2023-05-14T05:43:25;18.20;99.90
11221;DHT22;8517;53.546;10.104;2023-05-14T05:45:53;18.20;99.90
11221;DHT22;8517;53.546;10.104;2023-05-14T05:48:20;18.20;99.90
11221;DHT22;8517;53.546;10.104;2023-05-14T05:50:48;18.20;99.90
11221;DHT22;8517;53.546;10.104;2023-05-14T05:53:15;18.20;99.90
11221;DHT22;8517;53.546;10.104;2023-05-14T05:55:42;18.30;99.90
11221;DHT22;8517;53.546;10.104;2023-05-14T05:58:11;18.40;99.90
11221;DHT22;8517;53.546;10.104;2023-05-14T06:00:40;18.60;99.90
11221;DHT22;8517;53.546;10.104;2023-05-14T06:03:06;18.90;99.90
11221;DHT22;8517;53.546;10.104;2023-05-14T06:05:33;19.40;99.90
11221;DHT22;8517;53.546;10.104;2023-05-14T06:08:00;20.00;99.90
11221;DHT22;8517;53.546;10.104;2023-05-14T06:10:27;20.60;99.90
11221;DHT22;8517;53.546;10.104;2023-05-14T06:12:54;21.10;99.90
11221;DHT22;8517;53.546;10.104;2023-05-14T06:15:22;21.70;99.90
11221;DHT22;8517;53.546;10.104;2023-05-14T06:17:49;22.30;99.90
11221;DHT22;8517;53.546;10.104;2023-05-14T06:20:16;22.80;99.90
11221;DHT22;8517;53.546;10.104;2023-05-14T06:22:42;23.20;99.90
11221;DHT22;8517;53.546;10.104;2023-05-14T06:25:10;23.70;99.90
11221;DHT22;8517;53.546;10.104;2023-05-14T06:27:37;24.10;99.90
11221;DHT22;8517;53.546;10.104;2023-05-14T06:30:05;24.50;99.90
11221;DHT22;8517;53.546;10.104;2023-05-14T06:32:33;25.20;99.90
11221;DHT22;8517;53.546;10.104;2023-05-14T06:35:00;25.30;99.90
11221;DHT22;8517;53.546;10.104;2023-05-14T06:37:27;25.70;99.90
11221;DHT22;8517;53.546;10.104;2023-05-14T06:39:54;26.00;99.90
11221;DHT22;8517;53.546;10.104;2023-05-14T06:42:20;26.20;99.90
11221;DHT22;8517;53.546;10.104;2023-05-14T06:44:47;26.30;99.90
11221;DHT22;8517;53.546;10.104;2023-05-14T06:47:14;26.40;99.90
11221;DHT22;8517;53.546;10.104;2023-05-14T06:49:42;26.50;99.90
11221;DHT22;8517;53.546;10.104;2023-05-14T06:52:09;26.60;99.90
11221;DHT22;8517;53.546;10.104;2023-05-14T06:54:36;26.70;99.90
11221;DHT22;8517;53.546;10.104;2023-05-14T06:57:04;26.80;99.90
11221;DHT22;8517;53.546;10.104;2023-05-14T06:59:31;27.00;99.90
11221;DHT22;8517;53.546;10.104;2023-05-14T07:01:57;27.10;99.90
11221;DHT22;8517;53.546;10.104;2023-05-14T07:04:25;27.30;99.90
11221;DHT22;8517;53.546;10.104;2023-05-14T07:06:53;27.50;99.90
11221;DHT22;8517;53.546;10.104;2023-05-14T07:09:20;27.70;99.90
11221;DHT22;8517;53.546;10.104;2023-05-14T07:11:50;27.80;99.90
11221;DHT22;8517;53.546;10.104;2023-05-14T07:14:17;28.00;99.90
11221;DHT22;8517;53.546;10.104;2023-05-14T07:16:44;28.20;99.90
11221;DHT22;8517;53.546;10.104;2023-05-14T07:19:11;28.40;99.90
11221;DHT22;8517;53.546;10.104;2023-05-14T07:21:38;28.60;99.00
11221;DHT22;8517;53.546;10.104;2023-05-14T07:24:07;28.80;97.70
11221;DHT22;8517;53.546;10.104;2023-05-14T07:26:34;28.90;96.50
11221;DHT22;8517;53.546;10.104;2023-05-14T07:29:01;29.00;94.60
11221;DHT22;8517;53.546;10.104;2023-05-14T07:31:28;29.00;94.30
11221;DHT22;8517;53.546;10.104;2023-05-14T07:33:55;29.00;93.90
11221;DHT22;8517;53.546;10.104;2023-05-14T07:36:21;29.00;94.00
11221;DHT22;8517;53.546;10.104;2023-05-14T07:38:48;29.10;90.00
11221;DHT22;8517;53.546;10.104;2023-05-14T07:41:16;29.10;90.70
11221;DHT22;8517;53.546;10.104;2023-05-14T07:43:46;29.20;83.60
11221;DHT22;8517;53.546;10.104;2023-05-14T07:46:13;29.20;82.90
11221;DHT22;8517;53.546;10.104;2023-05-14T07:48:41;29.20;81.70
11221;DHT22;8517;53.546;10.104;2023-05-14T07:51:09;29.10;78.00
11221;DHT22;8517;53.546;10.104;2023-05-14T07:53:36;29.00;76.40
11221;DHT22;8517;53.546;10.104;2023-05-14T07:56:03;28.80;79.60
11221;DHT22;8517;53.546;10.104;2023-05-14T07:58:31;28.50;79.60
11221;DHT22;8517;53.546;10.104;2023-05-14T08:00:59;28.20;79.60
11221;DHT22;8517;53.546;10.104;2023-05-14T08:03:28;27.90;79.10
11221;DHT22;8517;53.546;10.104;2023-05-14T08:05:55;27.60;79.60
11221;DHT22;8517;53.546;10.104;2023-05-14T08:08:22;27.40;77.00
11221;DHT22;8517;53.546;10.104;2023-05-14T08:10:49;27.20;78.10
11221;DHT22;8517;53.546;10.104;2023-05-14T08:13:16;27.10;79.50
11221;DHT22;8517;53.546;10.104;2023-05-14T08:15:44;26.90;76.40
11221;DHT22;8517;53.546;10.104;2023-05-14T08:18:11;26.80;76.80
11221;DHT22;8517;53.546;10.104;2023-05-14T08:20:38;26.70;75.30
11221;DHT22;8517;53.546;10.104;2023-05-14T08:23:05;26.50;74.00
11221;DHT22;8517;53.546;10.104;2023-05-14T08:25:32;26.40;72.10
11221;DHT22;8517;53.546;10.104;2023-05-14T08:27:59;26.10;72.60
11221;DHT22;8517;53.546;10.104;2023-05-14T08:30:27;25.90;73.10
11221;DHT22;8517;53.546;10.104;2023-05-14T08:32:55;25.70;74.20
11221;DHT22;8517;53.546;10.104;2023-05-14T08:35:22;25.60;74.70
11221;DHT22;8517;53.546;10.104;2023-05-14T08:37:48;25.50;75.80
11221;DHT22;8517;53.546;10.104;2023-05-14T08:40:17;25.50;74.80
11221;DHT22;8517;53.546;10.104;2023-05-14T08:42:44;25.50;75.40
11221;DHT22;8517;53.546;10.104;2023-05-14T08:45:16;25.60;76.40
11221;DHT22;8517;53.546;10.104;2023-05-14T08:47:47;25.60;72.90
11221;DHT22;8517;53.546;10.104;2023-05-14T08:50:16;25.60;73.20
11221;DHT22;8517;53.546;10.104;2023-05-14T08:52:46;25.60;74.30
11221;DHT22;8517;53.546;10.104;2023-05-14T08:55:13;25.60;75.20
11221;DHT22;8517;53.546;10.104;2023-05-14T08:57:40;25.60;75.20
11221;DHT22;8517;53.546;10.104;2023-05-14T09:00:08;25.50;75.30
11221;DHT22;8517;53.546;10.104;2023-05-14T09:02:38;25.60;72.60
11221;DHT22;8517;53.546;10.104;2023-05-14T09:05:06;25.60;73.90
11221;DHT22;8517;53.546;10.104;2023-05-14T09:07:35;25.60;74.00
11221;DHT22;8517;53.546;10.104;2023-05-14T09:10:04;25.60;74.40
11221;DHT22;8517;53.546;10.104;2023-05-14T09:12:33;25.60;73.80
11221;DHT22;8517;53.546;10.104;2023-05-14T09:15:02;25.70;72.60
11221;DHT22;8517;53.546;10.104;2023-05-14T09:17:29;25.70;73.00
11221;DHT22;8517;53.546;10.104;2023-05-14T09:19:57;25.70;71.60
11221;DHT22;8517;53.546;10.104;2023-05-14T09:22:24;25.70;72.30
11221;DHT22;8517;53.546;10.104;2023-05-14T09:25:05;25.70;71.50
11221;DHT22;8517;53.546;10.104;2023-05-14T09:27:34;25.70;72.40
11221;DHT22;8517;53.546;10.104;2023-05-14T09:30:09;25.60;70.50
11221;DHT22;8517;53.546;10.104;2023-05-14T09:32:38;25.60;72.40
11221;DHT22;8517;53.546;10.104;2023-05-14T09:35:10;25.60;71.30
11221;DHT22;8517;53.546;10.104;2023-05-14T09:37:37;25.60;70.00
11221;DHT22;8517;53.546;10.104;2023-05-14T09:40:11;25.50;69.70
11221;DHT22;8517;53.546;10.104;2023-05-14T09:42:39;25.50;71.20
11221;DHT22;8517;53.546;10.104;2023-05-14T09:45:07;25.50;71.90
11221;DHT22;8517;53.546;10.104;2023-05-14T09:47:34;25.40;71.40
11221;DHT22;8517;53.546;10.104;2023-05-14T09:50:01;25.50;71.00
11221;DHT22;8517;53.546;10.104;2023-05-14T09:52:28;25.50;70.00
11221;DHT22;8517;53.546;10.104;2023-05-14T09:54:55;25.50;70.40
11221;DHT22;8517;53.546;10.104;2023-05-14T09:57:24;25.50;69.90
11221;DHT22;8517;53.546;10.104;2023-05-14T09:59:51;25.50;69.80
11221;DHT22;8517;53.546;10.104;2023-05-14T10:02:21;25.50;69.30
11221;DHT22;8517;53.546;10.104;2023-05-14T10:04:49;25.50;69.70
11221;DHT22;8517;53.546;10.104;2023-05-14T10:07:21;25.50;69.70
11221;DHT22;8517;53.546;10.104;2023-05-14T10:09:50;25.40;68.50
11221;DHT22;8517;53.546;10.104;2023-05-14T10:12:21;25.50;67.80
11221;DHT22;8517;53.546;10.104;2023-05-14T10:14:53;25.50;68.70
11221;DHT22;8517;53.546;10.104;2023-05-14T10:17:25;25.40;68.20
11221;DHT22;8517;53.546;10.104;2023-05-14T10:19:56;25.40;68.80
11221;DHT22;8517;53.546;10.104;2023-05-14T10:22:26;25.40;69.90
11221;DHT22;8517;53.546;10.104;2023-05-14T10:24:56;25.50;68.30
11221;DHT22;8517;53.546;10.104;2023-05-14T10:27:23;25.50;68.10
11221;DHT22;8517;53.546;10.104;2023-05-14T10:29:53;25.50;68.00
11221;DHT22;8517;53.546;10.104;2023-05-14T10:32:21;25.50;68.90
11221;DHT22;8517;53.546;10.104;2023-05-14T10:34:50;25.50;69.30
11221;DHT22;8517;53.546;10.104;2023-05-14T10:37:19;25.60;68.00
11221;DHT22;8517;53.546;10.104;2023-05-14T10:39:48;25.50;67.70
11221;DHT22;8517;53.546;10.104;2023-05-14T10:42:17;25.60;66.70
11221;DHT22;8517;53.546;10.104;2023-05-14T10:44:50;25.50;68.30
11221;DHT22;8517;53.546;10.104;2023-05-14T10:47:19;25.50;66.80
11221;DHT22;8517;53.546;10.104;2023-05-14T10:49:46;25.50;67.20
11221;DHT22;8517;53.546;10.104;2023-05-14T10:52:16;25.50;67.40
11221;DHT22;8517;53.546;10.104;2023-05-14T10:54:51;25.50;67.50
11221;DHT22;8517;53.546;10.104;2023-05-14T10:57:19;25.50;67.70
11221;DHT22;8517;53.546;10.104;2023-05-14T10:59:47;25.40;68.10
11221;DHT22;8517;53.546;10.104;2023-05-14T11:02:23;25.40;68.90
11221;DHT22;8517;53.546;10.104;2023-05-14T11:04:58;25.40;69.00
11221;DHT22;8517;53.546;10.104;2023-05-14T11:07:28;25.40;68.90
11221;DHT22;8517;53.546;10.104;2023-05-14T11:09:59;25.40;69.10
11221;DHT22;8517;53.546;10.104;2023-05-14T11:12:27;25.40;68.90
11221;DHT22;8517;53.546;10.104;2023-05-14T11:14:56;25.30;69.00
11221;DHT22;8517;53.546;10.104;2023-05-14T11:17:25;25.20;69.40
11221;DHT22;8517;53.546;10.104;2023-05-14T11:20:25;25.20;69.60
11221;DHT22;8517;53.546;10.104;2023-05-14T11:22:51;25.20;69.60
11221;DHT22;8517;53.546;10.104;2023-05-14T11:25:19;25.10;70.10
11221;DHT22;8517;53.546;10.104;2023-05-14T11:27:49;25.00;70.30
11221;DHT22;8517;53.546;10.104;2023-05-14T11:30:17;25.00;70.20
11221;DHT22;8517;53.546;10.104;2023-05-14T11:32:46;25.10;70.00
11221;DHT22;8517;53.546;10.104;2023-05-14T11:35:14;25.10;70.00
11221;DHT22;8517;53.546;10.104;2023-05-14T11:37:41;25.10;70.20
11221;DHT22;8517;53.546;10.104;2023-05-14T11:40:13;25.00;70.20
11221;DHT22;8517;53.546;10.104;2023-05-14T11:42:40;25.00;69.40
11221;DHT22;8517;53.546;10.104;2023-05-14T11:45:10;24.90;69.40
11221;DHT22;8517;53.546;10.104;2023-05-14T11:47:37;24.90;69.00
11221;DHT22;8517;53.546;10.104;2023-05-14T11:50:06;24.80;69.80
11221;DHT22;8517;53.546;10.104;2023-05-14T11:52:37;24.80;69.80
11221;DHT22;8517;53.546;10.104;2023-05-14T11:55:04;24.70;69.80
11221;DHT22;8517;53.546;10.104;2023-05-14T11:57:31;24.70;70.50
11221;DHT22;8517;53.546;10.104;2023-05-14T11:59:58;24.70;68.10
11221;DHT22;8517;53.546;10.104;2023-05-14T12:02:26;24.80;69.10
11221;DHT22;8517;53.546;10.104;2023-05-14T12:04:53;24.80;70.10
11221;DHT22;8517;53.546;10.104;2023-05-14T12:07:22;24.80;69.60
11221;DHT22;8517;53.546;10.104;2023-05-14T12:10:04;24.80;69.20
11221;DHT22;8517;53.546;10.104;2023-05-14T12:12:34;24.90;68.20
11221;DHT22;8517;53.546;10.104;2023-05-14T12:15:01;24.90;69.20
11221;DHT22;8517;53.546;10.104;2023-05-14T12:17:37;25.00;66.70
11221;DHT22;8517;53.546;10.104;2023-05-14T12:20:07;25.00;67.30
11221;DHT22;8517;53.546;10.104;2023-05-14T12:22:37;25.00;67.80
11221;DHT22;8517;53.546;10.104;2023-05-14T12:25:10;25.00;67.80
11221;DHT22;8517;53.546;10.104;2023-05-14T12:27:37;24.90;68.70
11221;DHT22;8517;53.546;10.104;2023-05-14T12:30:06;24.90;68.10
11221;DHT22;8517;53.546;10.104;2023-05-14T12:32:33;24.80;67.70
11221;DHT22;8517;53.546;10.104;2023-05-14T12:35:00;24.90;67.60
11221;DHT22;8517;53.546;10.104;2023-05-14T12:37:27;24.80;67.10
11221;DHT22;8517;53.546;10.104;2023-05-14T12:39:55;24.80;67.40
11221;DHT22;8517;53.546;10.104;2023-05-14T12:42:22;24.80;68.00
11221;DHT22;8517;53.546;10.104;2023-05-14T12:44:49;24.80;67.40
11221;DHT22;8517;53.546;10.104;2023-05-14T12:47:16;24.80;67.40
11221;DHT22;8517;53.546;10.104;2023-05-14T12:49:42;24.90;68.40
11221;DHT22;8517;53.546;10.104;2023-05-14T12:52:09;24.90;68.90
11221;DHT22;8517;53.546;10.104;2023-05-14T12:54:36;25.00;66.00
11221;DHT22;8517;53.546;10.104;2023-05-14T12:57:06;25.00;66.50
11221;DHT22;8517;53.546;10.104;2023-05-14T12:59:33;25.10;66.80
11221;DHT22;8517;53.546;10.104;2023-05-14T13:02:00;25.10;66.60
11221;DHT22;8517;53.546;10.104;2023-05-14T13:04:27;25.10;67.20
11221;DHT22;8517;53.546;10.104;2023-05-14T13:06:53;25.10;67.20
11221;DHT22;8517;53.546;10.104;2023-05-14T13:09:20;25.10;67.00
11221;DHT22;8517;53.546;10.104;2023-05-14T13:11:47;25.20;66.90
11221;DHT22;8517;53.546;10.104;2023-05-14T13:14:15;25.30;66.40
11221;DHT22;8517;53.546;10.104;2023-05-14T13:16:42;25.30;63.60
11221;DHT22;8517;53.546;10.104;2023-05-14T13:19:09;25.40;65.30
11221;DHT22;8517;53.546;10.104;2023-05-14T13:21:36;25.40;65.70
11221;DHT22;8517;53.546;10.104;2023-05-14T13:24:03;25.30;66.00
11221;DHT22;8517;53.546;10.104;2023-05-14T13:26:30;25.30;66.30
11221;DHT22;8517;53.546;10.104;2023-05-14T13:28:56;25.20;66.80
11221;DHT22;8517;53.546;10.104;2023-05-14T13:31:25;25.20;66.20
11221;DHT22;8517;53.546;10.104;2023-05-14T13:33:52;25.00;70.40
11221;DHT22;8517;53.546;10.104;2023-05-14T13:36:19;24.80;72.40
11221;DHT22;8517;53.546;10.104;2023-05-14T13:38:46;24.60;72.00
11221;DHT22;8517;53.546;10.104;2023-05-14T13:41:12;24.30;71.10
11221;DHT22;8517;53.546;10.104;2023-05-14T13:43:39;24.00;71.00
11221;DHT22;8517;53.546;10.104;2023-05-14T13:46:06;23.90;72.00
11221;DHT22;8517;53.546;10.104;2023-05-14T13:48:34;23.70;71.30
11221;DHT22;8517;53.546;10.104;2023-05-14T13:51:02;23.60;70.90
11221;DHT22;8517;53.546;10.104;2023-05-14T13:53:28;23.60;70.80
11221;DHT22;8517;53.546;10.104;2023-05-14T13:55:55;23.60;71.40
11221;DHT22;8517;53.546;10.104;2023-05-14T13:58:23;23.50;70.80
11221;DHT22;8517;53.546;10.104;2023-05-14T14:00:50;23.60;71.10
11221;DHT22;8517;53.546;10.104;2023-05-14T14:03:17;23.60;70.50
11221;DHT22;8517;53.546;10.104;2023-05-14T14:05:45;23.60;70.40
11221;DHT22;8517;53.546;10.104;2023-05-14T14:08:12;23.70;70.50
11221;DHT22;8517;53.546;10.104;2023-05-14T14:10:39;23.70;71.00
11221;DHT22;8517;53.546;10.104;2023-05-14T14:13:07;23.80;70.70
11221;DHT22;8517;53.546;10.104;2023-05-14T14:15:34;23.90;71.00
11221;DHT22;8517;53.546;10.104;2023-05-14T14:18:01;23.90;70.60
11221;DHT22;8517;53.546;10.104;2023-05-14T14:20:28;24.00;70.50
11221;DHT22;8517;53.546;10.104;2023-05-14T14:22:57;24.00;70.50
11221;DHT22;8517;53.546;10.104;2023-05-14T14:25:23;24.20;70.60
11221;DHT22;8517;53.546;10.104;2023-05-14T14:27:50;24.20;70.90
11221;DHT22;8517;53.546;10.104;2023-05-14T14:30:17;24.30;70.40
11221;DHT22;8517;53.546;10.104;2023-05-14T14:32:44;24.40;70.50
11221;DHT22;8517;53.546;10.104;2023-05-14T14:35:12;24.40;73.20
11221;DHT22;8517;53.546;10.104;2023-05-14T14:37:40;24.50;71.10
11221;DHT22;8517;53.546;10.104;2023-05-14T14:40:10;24.60;70.50
11221;DHT22;8517;53.546;10.104;2023-05-14T14:42:37;24.60;70.30
11221;DHT22;8517;53.546;10.104;2023-05-14T14:45:05;24.70;69.70
11221;DHT22;8517;53.546;10.104;2023-05-14T14:47:32;24.80;70.40
11221;DHT22;8517;53.546;10.104;2023-05-14T14:49:59;24.80;70.10
11221;DHT22;8517;53.546;10.104;2023-05-14T14:52:26;24.80;69.80
11221;DHT22;8517;53.546;10.104;2023-05-14T14:54:53;24.70;71.00
11221;DHT22;8517;53.546;10.104;2023-05-14T14:57:21;24.70;70.00
11221;DHT22;8517;53.546;10.104;2023-05-14T14:59:48;24.70;71.10
11221;DHT22;8517;53.546;10.104;2023-05-14T15:02:15;24.70;70.30
11221;DHT22;8517;53.546;10.104;2023-05-14T15:04:42;24.70;69.10
11221;DHT22;8517;53.546;10.104;2023-05-14T15:07:08;24.70;68.60
11221;DHT22;8517;53.546;10.104;2023-05-14T15:09:35;24.60;67.90
11221;DHT22;8517;53.546;10.104;2023-05-14T15:12:02;24.60;68.20
11221;DHT22;8517;53.546;10.104;2023-05-14T15:14:31;24.60;69.20
11221;DHT22;8517;53.546;10.104;2023-05-14T15:16:58;24.50;69.40
11221;DHT22;8517;53.546;10.104;2023-05-14T15:19:24;24.50;69.20
11221;DHT22;8517;53.546;10.104;2023-05-14T15:21:51;24.50;68.80
11221;DHT22;8517;53.546;10.104;2023-05-14T15:24:18;24.50;68.70
11221;DHT22;8517;53.546;10.104;2023-05-14T15:26:45;24.50;68.80
11221;DHT22;8517;53.546;10.104;2023-05-14T15:29:12;24.50;68.90
11221;DHT22;8517;53.546;10.104;2023-05-14T15:31:40;24.50;68.40
11221;DHT22;8517;53.546;10.104;2023-05-14T15:34:07;24.50;68.40
11221;DHT22;8517;53.546;10.104;2023-05-14T15:36:34;24.50;68.40
11221;DHT22;8517;53.546;10.104;2023-05-14T15:39:00;24.50;68.30
11221;DHT22;8517;53.546;10.104;2023-05-14T15:41:27;24.50;68.20